sensor_id;sensor_type;location;lat;lon;timestamp;temperature;humidity
23873;DHT22;42884;50.718;4.630;2024-03-22T00:01:15;13.90;99.90
23873;DHT22;42884;50.718;4.630;2024-03-22T00:03:41;13.90;99.90
23873;DHT22;42884;50.718;4.630;2024-03-22T00:06:06;13.80;99.90
23873;DHT22;42884;50.718;4.630;2024-03-22T00:08:32;13.80;99.90
23873;DHT22;42884;50.718;4.630;2024-03-22T00:10:57;13.90;99.90
23873;DHT22;42884;50.718;4.630;2024-03-22T00:13:23;13.90;99.90
23873;DHT22;42884;50.718;4.630;2024-03-22T00:15:49;13.90;99.90
23873;DHT22;42884;50.718;4.630;2024-03-22T00:18:14;13.90;99.90
23873;DHT22;42884;50.718;4.630;2024-03-22T00:20:40;13.90;99.90
23873;DHT22;42884;50.718;4.630;2024-03-22T00:23:05;13.90;99.90
23873;DHT22;42884;50.718;4.630;2024-03-22T00:25:31;13.90;99.90
23873;DHT22;42884;50.718;4.630;2024-03-22T00:27:57;13.90;99.90
23873;DHT22;42884;50.718;4.630;2024-03-22T00:30:22;13.90;99.90
23873;DHT22;42884;50.718;4.630;2024-03-22T00:32:48;13.90;99.90
23873;DHT22;42884;50.718;4.630;2024-03-22T00:35:14;13.90;99.90
23873;DHT22;42884;50.718;4.630;2024-03-22T00:37:39;14.00;99.90
23873;DHT22;42884;50.718;4.630;2024-03-22T00:40:05;13.90;99.90
23873;DHT22;42884;50.718;4.630;2024-03-22T00:42:31;13.90;99.90
23873;DHT22;42884;50.718;4.630;2024-03-22T00:44:57;13.80;99.90
23873;DHT22;42884;50.718;4.630;2024-03-22T00:47:23;13.80;99.90
23873;DHT22;42884;50.718;4.630;2024-03-22T00:49:48;13.80;99.90
23873;DHT22;42884;50.718;4.630;2024-03-22T00:52:14;13.90;99.90
23873;DHT22;42884;50.718;4.630;2024-03-22T00:54:40;13.90;99.90
23873;DHT22;42884;50.718;4.630;2024-03-22T00:57:06;14.00;99.90
23873;DHT22;42884;50.718;4.630;2024-03-22T00:59:32;14.00;99.90
23873;DHT22;42884;50.718;4.630;2024-03-22T01:01:58;14.00;99.90
23873;DHT22;42884;50.718;4.630;2024-03-22T01:04:23;14.00;99.90
23873;DHT22;42884;50.718;4.630;2024-03-22T01:06:49;14.10;99.90
23873;DHT22;42884;50.718;4.630;2024-03-22T01:09:14;14.00;99.90
23873;DHT22;42884;50.718;4.630;2024-03-22T01:11:40;14.00;99.90
23873;DHT22;42884;50.718;4.630;2024-03-22T01:14:06;14.00;99.90
23873;DHT22;42884;50.718;4.630;2024-03-22T01:16:31;14.00;99.90
23873;DHT22;42884;50.718;4.630;2024-03-22T01:18:57;14.00;99.90
23873;DHT22;42884;50.718;4.630;2024-03-22T01:21:23;14.00;99.90
23873;DHT22;42884;50.718;4.630;2024-03-22T01:23:53;14.00;99.90
23873;DHT22;42884;50.718;4.630;2024-03-22T01:26:19;13.90;99.90
23873;DHT22;42884;50.718;4.630;2024-03-22T01:28:44;13.90;99.90
23873;DHT22;42884;50.718;4.630;2024-03-22T01:31:10;13.80;99.90
23873;DHT22;42884;50.718;4.630;2024-03-22T01:33:35;13.80;99.90
23873;DHT22;42884;50.718;4.630;2024-03-22T01:36:01;13.80;99.90
23873;DHT22;42884;50.718;4.630;2024-03-22T01:38:26;13.80;99.90
23873;DHT22;42884;50.718;4.630;2024-03-22T01:40:53;13.80;99.90
23873;DHT22;42884;50.718;4.630;2024-03-22T01:43:18;13.80;99.90
23873;DHT22;42884;50.718;4.630;2024-03-22T01:45:44;13.80;99.90
23873;DHT22;42884;50.718;4.630;2024-03-22T01:48:10;13.90;99.90
23873;DHT22;42884;50.718;4.630;2024-03-22T01:50:36;13.80;99.90
23873;DHT22;42884;50.718;4.630;2024-03-22T01:53:02;13.90;99.90
23873;DHT22;42884;50.718;4.630;2024-03-22T01:55:28;13.80;99.90
23873;DHT22;42884;50.718;4.630;2024-03-22T01:57:56;13.70;99.90
23873;DHT22;42884;50.718;4.630;2024-03-22T02:00:22;13.80;99.90
23873;DHT22;42884;50.718;4.630;2024-03-22T02:02:48;13.70;99.90
23873;DHT22;42884;50.718;4.630;2024-03-22T02:05:17;13.70;99.90
23873;DHT22;42884;50.718;4.630;2024-03-22T02:07:47;13.70;99.90
23873;DHT22;42884;50.718;4.630;2024-03-22T02:10:13;13.60;99.90
23873;DHT22;42884;50.718;4.630;2024-03-22T02:12:40;13.60;99.90
23873;DHT22;42884;50.718;4.630;2024-03-22T02:15:06;13.60;99.90
23873;DHT22;42884;50.718;4.630;2024-03-22T02:17:35;13.60;99.90
23873;DHT22;42884;50.718;4.630;2024-03-22T02:20:00;13.40;99.90
23873;DHT22;42884;50.718;4.630;2024-03-22T02:22:26;13.40;99.90
23873;DHT22;42884;50.718;4.630;2024-03-22T02:24:52;13.40;99.90
23873;DHT22;42884;50.718;4.630;2024-03-22T02:27:17;13.40;99.90
23873;DHT22;42884;50.718;4.630;2024-03-22T02:29:43;13.30;99.90
23873;DHT22;42884;50.718;4.630;2024-03-22T02:32:09;13.30;99.90
23873;DHT22;42884;50.718;4.630;2024-03-22T02:34:34;13.20;99.90
23873;DHT22;42884;50.718;4.630;2024-03-22T02:37:00;13.20;99.90
23873;DHT22;42884;50.718;4.630;2024-03-22T02:39:26;13.10;99.90
23873;DHT22;42884;50.718;4.630;2024-03-22T02:41:51;13.10;99.90
23873;DHT22;42884;50.718;4.630;2024-03-22T02:44:17;13.00;99.90
23873;DHT22;42884;50.718;4.630;2024-03-22T02:46:43;13.00;99.90
23873;DHT22;42884;50.718;4.630;2024-03-22T02:49:08;13.00;99.90
23873;DHT22;42884;50.718;4.630;2024-03-22T02:51:34;13.00;99.90
23873;DHT22;42884;50.718;4.630;2024-03-22T02:53:59;12.90;99.90
23873;DHT22;42884;50.718;4.630;2024-03-22T02:56:25;12.80;99.90
23873;DHT22;42884;50.718;4.630;2024-03-22T02:58:50;12.90;99.90
23873;DHT22;42884;50.718;4.630;2024-03-22T03:01:16;12.80;99.90
23873;DHT22;42884;50.718;4.630;2024-03-22T03:03:42;12.80;99.90
23873;DHT22;42884;50.718;4.630;2024-03-22T03:06:07;12.70;99.90
23873;DHT22;42884;50.718;4.630;2024-03-22T03:08:34;12.70;99.90
23873;DHT22;42884;50.718;4.630;2024-03-22T03:10:59;12.70;99.90
23873;DHT22;42884;50.718;4.630;2024-03-22T03:13:25;12.70;99.90
23873;DHT22;42884;50.718;4.630;2024-03-22T03:15:51;12.70;99.90
23873;DHT22;42884;50.718;4.630;2024-03-22T03:18:17;12.70;99.90
23873;DHT22;42884;50.718;4.630;2024-03-22T03:20:43;12.70;99.90
23873;DHT22;42884;50.718;4.630;2024-03-22T03:23:08;12.70;99.90
23873;DHT22;42884;50.718;4.630;2024-03-22T03:25:34;12.80;99.90
23873;DHT22;42884;50.718;4.630;2024-03-22T03:27:59;12.80;99.90
23873;DHT22;42884;50.718;4.630;2024-03-22T03:30:25;12.90;99.90
23873;DHT22;42884;50.718;4.630;2024-03-22T03:32:51;13.00;99.90
23873;DHT22;42884;50.718;4.630;2024-03-22T03:35:16;13.00;99.90
23873;DHT22;42884;50.718;4.630;2024-03-22T03:37:42;13.00;99.90
23873;DHT22;42884;50.718;4.630;2024-03-22T03:40:08;13.00;99.90
23873;DHT22;42884;50.718;4.630;2024-03-22T03:42:33;13.10;99.90
23873;DHT22;42884;50.718;4.630;2024-03-22T03:44:59;13.10;99.90
23873;DHT22;42884;50.718;4.630;2024-03-22T03:47:25;13.00;99.90
23873;DHT22;42884;50.718;4.630;2024-03-22T03:49:50;13.10;99.90
23873;DHT22;42884;50.718;4.630;2024-03-22T03:52:17;13.10;99.90
23873;DHT22;42884;50.718;4.630;2024-03-22T03:54:43;13.10;99.90
23873;DHT22;42884;50.718;4.630;2024-03-22T03:57:08;13.00;99.90
23873;DHT22;42884;50.718;4.630;2024-03-22T03:59:34;13.00;99.90
23873;DHT22;42884;50.718;4.630;2024-03-22T04:02:00;13.00;99.90
23873;DHT22;42884;50.718;4.630;2024-03-22T04:04:25;13.00;99.90
23873;DHT22;42884;50.718;4.630;2024-03-22T04:06:51;13.10;99.90
23873;DHT22;42884;50.718;4.630;2024-03-22T04:09:16;13.00;99.90
23873;DHT22;42884;50.718;4.630;2024-03-22T04:11:42;12.90;99.90
23873;DHT22;42884;50.718;4.630;2024-03-22T04:14:09;13.00;99.90
23873;DHT22;42884;50.718;4.630;2024-03-22T04:16:34;12.90;99.90
23873;DHT22;42884;50.718;4.630;2024-03-22T04:19:00;12.90;99.90
23873;DHT22;42884;50.718;4.630;2024-03-22T04:21:26;13.00;99.90
23873;DHT22;42884;50.718;4.630;2024-03-22T04:23:51;13.00;99.90
23873;DHT22;42884;50.718;4.630;2024-03-22T04:26:17;13.00;99.90
23873;DHT22;42884;50.718;4.630;2024-03-22T04:28:42;13.00;99.90
23873;DHT22;42884;50.718;4.630;2024-03-22T04:31:08;12.90;99.90
23873;DHT22;42884;50.718;4.630;2024-03-22T04:33:35;13.00;99.90
23873;DHT22;42884;50.718;4.630;2024-03-22T04:36:00;13.00;99.90
23873;DHT22;42884;50.718;4.630;2024-03-22T04:38:26;13.10;99.90
23873;DHT22;42884;50.718;4.630;2024-03-22T04:40:52;13.10;99.90
23873;DHT22;42884;50.718;4.630;2024-03-22T04:43:18;13.10;99.90
23873;DHT22;42884;50.718;4.630;2024-03-22T04:45:47;13.10;99.90
23873;DHT22;42884;50.718;4.630;2024-03-22T04:48:14;13.20;99.90
23873;DHT22;42884;50.718;4.630;2024-03-22T04:50:40;13.20;99.90
23873;DHT22;42884;50.718;4.630;2024-03-22T04:53:05;13.20;99.90
23873;DHT22;42884;50.718;4.630;2024-03-22T04:55:31;13.20;99.90
23873;DHT22;42884;50.718;4.630;2024-03-22T04:57:58;13.20;99.90
23873;DHT22;42884;50.718;4.630;2024-03-22T05:00:24;13.20;99.90
23873;DHT22;42884;50.718;4.630;2024-03-22T05:02:53;13.20;99.90
23873;DHT22;42884;50.718;4.630;2024-03-22T05:05:18;13.20;99.90
23873;DHT22;42884;50.718;4.630;2024-03-22T05:07:44;13.20;99.90
23873;DHT22;42884;50.718;4.630;2024-03-22T05:10:10;13.20;99.90
23873;DHT22;42884;50.718;4.630;2024-03-22T05:12:35;13.20;99.90
23873;DHT22;42884;50.718;4.630;2024-03-22T05:15:05;13.20;99.90
23873;DHT22;42884;50.718;4.630;2024-03-22T05:17:31;13.20;99.90
23873;DHT22;42884;50.718;4.630;2024-03-22T05:20:00;13.20;99.90
23873;DHT22;42884;50.718;4.630;2024-03-22T05:22:27;13.10;99.90
23873;DHT22;42884;50.718;4.630;2024-03-22T05:24:52;13.20;99.90
23873;DHT22;42884;50.718;4.630;2024-03-22T05:27:18;13.20;99.90
23873;DHT22;42884;50.718;4.630;2024-03-22T05:29:44;13.20;99.90
23873;DHT22;42884;50.718;4.630;2024-03-22T05:32:10;13.10;99.90
23873;DHT22;42884;50.718;4.630;2024-03-22T05:34:35;13.10;99.90
23873;DHT22;42884;50.718;4.630;2024-03-22T05:37:02;13.10;99.90
23873;DHT22;42884;50.718;4.630;2024-03-22T05:39:27;13.10;99.90
23873;DHT22;42884;50.718;4.630;2024-03-22T05:41:53;13.10;99.90
23873;DHT22;42884;50.718;4.630;2024-03-22T05:44:22;13.00;99.90
23873;DHT22;42884;50.718;4.630;2024-03-22T05:46:48;13.10;99.90
23873;DHT22;42884;50.718;4.630;2024-03-22T05:49:13;13.20;99.90
23873;DHT22;42884;50.718;4.630;2024-03-22T05:51:39;13.10;99.90
23873;DHT22;42884;50.718;4.630;2024-03-22T05:54:05;13.10;99.90
23873;DHT22;42884;50.718;4.630;2024-03-22T05:56:31;13.10;99.90
23873;DHT22;42884;50.718;4.630;2024-03-22T05:58:56;13.10;99.90
23873;DHT22;42884;50.718;4.630;2024-03-22T06:01:22;13.10;99.90
23873;DHT22;42884;50.718;4.630;2024-03-22T06:03:47;13.00;99.90
23873;DHT22;42884;50.718;4.630;2024-03-22T06:06:13;13.00;99.90
23873;DHT22;42884;50.718;4.630;2024-03-22T06:08:39;13.00;99.90
23873;DHT22;42884;50.718;4.630;2024-03-22T06:11:10;13.00;99.90
23873;DHT22;42884;50.718;4.630;2024-03-22T06:13:35;13.10;99.90
23873;DHT22;42884;50.718;4.630;2024-03-22T06:16:02;13.00;99.90
23873;DHT22;42884;50.718;4.630;2024-03-22T06:18:27;13.10;99.90
23873;DHT22;42884;50.718;4.630;2024-03-22T06:20:53;13.10;99.90
23873;DHT22;42884;50.718;4.630;2024-03-22T06:23:23;13.10;99.90
23873;DHT22;42884;50.718;4.630;2024-03-22T06:25:55;13.10;99.90
23873;DHT22;42884;50.718;4.630;2024-03-22T06:28:21;13.20;99.90
23873;DHT22;42884;50.718;4.630;2024-03-22T06:30:47;13.20;99.90
23873;DHT22;42884;50.718;4.630;2024-03-22T06:33:12;13.20;99.90
23873;DHT22;42884;50.718;4.630;2024-03-22T06:35:38;13.20;99.90
23873;DHT22;42884;50.718;4.630;2024-03-22T06:38:04;13.20;99.90
23873;DHT22;42884;50.718;4.630;2024-03-22T06:40:30;13.30;99.90
23873;DHT22;42884;50.718;4.630;2024-03-22T06:42:56;13.30;99.90
23873;DHT22;42884;50.718;4.630;2024-03-22T06:45:22;13.30;99.90
23873;DHT22;42884;50.718;4.630;2024-03-22T06:47:47;13.20;99.90
23873;DHT22;42884;50.718;4.630;2024-03-22T06:50:13;13.10;99.90
23873;DHT22;42884;50.718;4.630;2024-03-22T06:52:38;13.10;99.90
23873;DHT22;42884;50.718;4.630;2024-03-22T06:55:04;13.00;99.90
23873;DHT22;42884;50.718;4.630;2024-03-22T06:57:30;13.00;99.90
23873;DHT22;42884;50.718;4.630;2024-03-22T06:59:56;13.00;99.90
23873;DHT22;42884;50.718;4.630;2024-03-22T07:02:21;13.00;99.90
23873;DHT22;42884;50.718;4.630;2024-03-22T07:04:47;12.80;99.90
23873;DHT22;42884;50.718;4.630;2024-03-22T07:07:12;12.80;99.90
23873;DHT22;42884;50.718;4.630;2024-03-22T07:09:38;12.80;99.90
23873;DHT22;42884;50.718;4.630;2024-03-22T07:12:04;12.80;99.90
23873;DHT22;42884;50.718;4.630;2024-03-22T07:14:30;12.90;99.90
23873;DHT22;42884;50.718;4.630;2024-03-22T07:16:56;12.90;99.90
23873;DHT22;42884;50.718;4.630;2024-03-22T07:19:21;12.90;99.90
23873;DHT22;42884;50.718;4.630;2024-03-22T07:21:47;12.90;99.90
23873;DHT22;42884;50.718;4.630;2024-03-22T07:24:13;12.70;99.90
23873;DHT22;42884;50.718;4.630;2024-03-22T07:26:39;12.70;99.90
23873;DHT22;42884;50.718;4.630;2024-03-22T07:29:04;12.70;99.90
23873;DHT22;42884;50.718;4.630;2024-03-22T07:31:30;12.80;99.90
23873;DHT22;42884;50.718;4.630;2024-03-22T07:33:56;12.80;99.90
23873;DHT22;42884;50.718;4.630;2024-03-22T07:36:21;12.70;99.90
23873;DHT22;42884;50.718;4.630;2024-03-22T07:38:47;12.80;99.90
23873;DHT22;42884;50.718;4.630;2024-03-22T07:41:14;12.70;99.90
23873;DHT22;42884;50.718;4.630;2024-03-22T07:43:40;12.50;99.90
23873;DHT22;42884;50.718;4.630;2024-03-22T07:46:05;12.50;99.90
23873;DHT22;42884;50.718;4.630;2024-03-22T07:48:31;12.50;99.90
23873;DHT22;42884;50.718;4.630;2024-03-22T07:50:57;12.60;99.90
23873;DHT22;42884;50.718;4.630;2024-03-22T07:53:23;12.40;99.90
23873;DHT22;42884;50.718;4.630;2024-03-22T07:55:49;12.30;99.90
23873;DHT22;42884;50.718;4.630;2024-03-22T07:58:14;12.30;99.90
23873;DHT22;42884;50.718;4.630;2024-03-22T08:00:40;12.30;99.90
23873;DHT22;42884;50.718;4.630;2024-03-22T08:03:06;12.40;99.90
23873;DHT22;42884;50.718;4.630;2024-03-22T08:05:32;12.50;99.90
23873;DHT22;42884;50.718;4.630;2024-03-22T08:07:57;12.40;99.90
23873;DHT22;42884;50.718;4.630;2024-03-22T08:10:23;12.50;99.90
23873;DHT22;42884;50.718;4.630;2024-03-22T08:12:48;12.50;99.90
23873;DHT22;42884;50.718;4.630;2024-03-22T08:15:14;12.40;99.90
23873;DHT22;42884;50.718;4.630;2024-03-22T08:17:40;12.40;99.90
23873;DHT22;42884;50.718;4.630;2024-03-22T08:20:06;12.50;99.90
23873;DHT22;42884;50.718;4.630;2024-03-22T08:22:32;12.50;99.90
23873;DHT22;42884;50.718;4.630;2024-03-22T08:24:57;12.50;99.90
23873;DHT22;42884;50.718;4.630;2024-03-22T08:27:23;12.60;99.90
23873;DHT22;42884;50.718;4.630;2024-03-22T08:29:49;12.50;99.90
23873;DHT22;42884;50.718;4.630;2024-03-22T08:32:15;12.60;99.90
23873;DHT22;42884;50.718;4.630;2024-03-22T08:34:41;12.50;99.90
23873;DHT22;42884;50.718;4.630;2024-03-22T08:37:06;12.60;99.90
23873;DHT22;42884;50.718;4.630;2024-03-22T08:39:32;12.60;99.90
23873;DHT22;42884;50.718;4.630;2024-03-22T08:41:58;12.60;99.90
23873;DHT22;42884;50.718;4.630;2024-03-22T08:44:24;12.70;99.90
23873;DHT22;42884;50.718;4.630;2024-03-22T08:46:49;12.70;99.90
23873;DHT22;42884;50.718;4.630;2024-03-22T08:49:15;12.70;99.90
23873;DHT22;42884;50.718;4.630;2024-03-22T08:51:41;12.70;99.90
23873;DHT22;42884;50.718;4.630;2024-03-22T08:54:06;12.80;99.90
23873;DHT22;42884;50.718;4.630;2024-03-22T08:56:32;12.70;99.90
23873;DHT22;42884;50.718;4.630;2024-03-22T08:58:58;12.80;99.90
23873;DHT22;42884;50.718;4.630;2024-03-22T09:01:24;12.80;99.90
23873;DHT22;42884;50.718;4.630;2024-03-22T09:03:50;12.70;99.90
23873;DHT22;42884;50.718;4.630;2024-03-22T09:06:16;12.70;99.90
23873;DHT22;42884;50.718;4.630;2024-03-22T09:08:42;12.80;99.90
23873;DHT22;42884;50.718;4.630;2024-03-22T09:11:07;12.90;99.90
23873;DHT22;42884;50.718;4.630;2024-03-22T09:13:33;13.00;99.90
23873;DHT22;42884;50.718;4.630;2024-03-22T09:16:00;13.00;99.90
23873;DHT22;42884;50.718;4.630;2024-03-22T09:18:26;13.00;99.90
23873;DHT22;42884;50.718;4.630;2024-03-22T09:20:52;13.10;99.90
23873;DHT22;42884;50.718;4.630;2024-03-22T09:23:18;13.10;99.90
23873;DHT22;42884;50.718;4.630;2024-03-22T09:25:45;13.10;99.90
23873;DHT22;42884;50.718;4.630;2024-03-22T09:28:10;13.20;99.90
23873;DHT22;42884;50.718;4.630;2024-03-22T09:30:39;13.10;99.90
23873;DHT22;42884;50.718;4.630;2024-03-22T09:33:05;13.30;99.90
23873;DHT22;42884;50.718;4.630;2024-03-22T09:35:32;13.40;99.90
23873;DHT22;42884;50.718;4.630;2024-03-22T09:37:58;13.70;99.90
23873;DHT22;42884;50.718;4.630;2024-03-22T09:40:24;13.80;99.90
23873;DHT22;42884;50.718;4.630;2024-03-22T09:42:50;13.90;99.90
23873;DHT22;42884;50.718;4.630;2024-03-22T09:45:18;13.90;99.90
23873;DHT22;42884;50.718;4.630;2024-03-22T09:47:45;14.00;99.90
23873;DHT22;42884;50.718;4.630;2024-03-22T09:50:11;14.00;99.90
23873;DHT22;42884;50.718;4.630;2024-03-22T09:52:38;13.70;99.90
23873;DHT22;42884;50.718;4.630;2024-03-22T09:55:05;13.70;99.90
23873;DHT22;42884;50.718;4.630;2024-03-22T09:57:31;13.90;99.90
23873;DHT22;42884;50.718;4.630;2024-03-22T09:59:57;13.90;99.90
23873;DHT22;42884;50.718;4.630;2024-03-22T10:02:22;13.90;99.90
23873;DHT22;42884;50.718;4.630;2024-03-22T10:04:50;13.80;99.90
23873;DHT22;42884;50.718;4.630;2024-03-22T10:07:17;13.70;99.90
23873;DHT22;42884;50.718;4.630;2024-03-22T10:09:42;13.70;99.90
23873;DHT22;42884;50.718;4.630;2024-03-22T10:12:09;13.80;99.90
23873;DHT22;42884;50.718;4.630;2024-03-22T10:14:35;13.80;99.90
23873;DHT22;42884;50.718;4.630;2024-03-22T10:17:02;13.90;99.90
23873;DHT22;42884;50.718;4.630;2024-03-22T10:19:28;13.90;99.90
23873;DHT22;42884;50.718;4.630;2024-03-22T10:22:00;14.00;99.90
23873;DHT22;42884;50.718;4.630;2024-03-22T10:24:25;14.00;99.90
23873;DHT22;42884;50.718;4.630;2024-03-22T10:26:51;14.00;99.90
23873;DHT22;42884;50.718;4.630;2024-03-22T10:29:18;14.20;99.90
23873;DHT22;42884;50.718;4.630;2024-03-22T10:31:45;14.10;99.90
23873;DHT22;42884;50.718;4.630;2024-03-22T10:34:13;14.10;99.90
23873;DHT22;42884;50.718;4.630;2024-03-22T10:36:39;14.20;99.90
23873;DHT22;42884;50.718;4.630;2024-03-22T10:39:05;14.10;99.90
23873;DHT22;42884;50.718;4.630;2024-03-22T10:41:31;14.10;99.90
23873;DHT22;42884;50.718;4.630;2024-03-22T10:43:56;14.20;99.90
23873;DHT22;42884;50.718;4.630;2024-03-22T10:46:24;14.10;99.90
23873;DHT22;42884;50.718;4.630;2024-03-22T10:48:53;14.20;99.90
23873;DHT22;42884;50.718;4.630;2024-03-22T10:51:19;14.20;99.90
23873;DHT22;42884;50.718;4.630;2024-03-22T10:53:45;14.00;99.90
23873;DHT22;42884;50.718;4.630;2024-03-22T10:56:11;14.10;99.90
23873;DHT22;42884;50.718;4.630;2024-03-22T10:58:41;14.20;99.90
23873;DHT22;42884;50.718;4.630;2024-03-22T11:01:11;14.20;99.90
23873;DHT22;42884;50.718;4.630;2024-03-22T11:03:46;14.30;99.90
23873;DHT22;42884;50.718;4.630;2024-03-22T11:06:12;14.40;99.90
23873;DHT22;42884;50.718;4.630;2024-03-22T11:08:37;14.50;99.90
23873;DHT22;42884;50.718;4.630;2024-03-22T11:11:09;14.50;99.90
23873;DHT22;42884;50.718;4.630;2024-03-22T11:13:36;14.60;99.90
23873;DHT22;42884;50.718;4.630;2024-03-22T11:16:01;14.80;99.90
23873;DHT22;42884;50.718;4.630;2024-03-22T11:18:27;15.00;99.90
23873;DHT22;42884;50.718;4.630;2024-03-22T11:20:53;14.90;99.90
23873;DHT22;42884;50.718;4.630;2024-03-22T11:23:19;15.00;99.90
23873;DHT22;42884;50.718;4.630;2024-03-22T11:25:45;15.00;99.90
23873;DHT22;42884;50.718;4.630;2024-03-22T11:28:11;15.20;99.90
23873;DHT22;42884;50.718;4.630;2024-03-22T11:30:37;15.20;99.90
23873;DHT22;42884;50.718;4.630;2024-03-22T11:33:03;15.40;99.90
23873;DHT22;42884;50.718;4.630;2024-03-22T11:35:29;15.60;99.90
23873;DHT22;42884;50.718;4.630;2024-03-22T11:37:55;15.60;99.90
23873;DHT22;42884;50.718;4.630;2024-03-22T11:40:21;15.60;99.90
23873;DHT22;42884;50.718;4.630;2024-03-22T11:42:49;15.50;99.90
23873;DHT22;42884;50.718;4.630;2024-03-22T11:45:16;15.70;99.90
23873;DHT22;42884;50.718;4.630;2024-03-22T11:47:43;15.50;99.90
23873;DHT22;42884;50.718;4.630;2024-03-22T11:50:11;15.40;99.90
23873;DHT22;42884;50.718;4.630;2024-03-22T11:52:40;15.20;99.90
23873;DHT22;42884;50.718;4.630;2024-03-22T11:55:05;15.40;99.90
23873;DHT22;42884;50.718;4.630;2024-03-22T11:57:31;15.30;99.90
23873;DHT22;42884;50.718;4.630;2024-03-22T12:00:00;15.20;99.90
23873;DHT22;42884;50.718;4.630;2024-03-22T12:02:26;15.30;99.90
23873;DHT22;42884;50.718;4.630;2024-03-22T12:04:52;15.60;99.90
23873;DHT22;42884;50.718;4.630;2024-03-22T12:07:18;15.80;99.90
23873;DHT22;42884;50.718;4.630;2024-03-22T12:09:44;15.70;99.90
23873;DHT22;42884;50.718;4.630;2024-03-22T12:12:10;15.60;99.90
23873;DHT22;42884;50.718;4.630;2024-03-22T12:14:36;15.70;99.90
23873;DHT22;42884;50.718;4.630;2024-03-22T12:17:02;15.70;99.90
23873;DHT22;42884;50.718;4.630;2024-03-22T12:19:28;15.50;99.90
23873;DHT22;42884;50.718;4.630;2024-03-22T12:21:54;15.60;99.90
23873;DHT22;42884;50.718;4.630;2024-03-22T12:24:19;15.60;99.90
23873;DHT22;42884;50.718;4.630;2024-03-22T12:26:45;15.60;99.90
23873;DHT22;42884;50.718;4.630;2024-03-22T12:29:12;15.80;99.90
23873;DHT22;42884;50.718;4.630;2024-03-22T12:31:38;15.90;99.90
23873;DHT22;42884;50.718;4.630;2024-03-22T12:34:03;15.80;99.90
23873;DHT22;42884;50.718;4.630;2024-03-22T12:36:29;15.80;99.90
23873;DHT22;42884;50.718;4.630;2024-03-22T12:38:55;15.70;99.90
23873;DHT22;42884;50.718;4.630;2024-03-22T12:41:20;15.60;99.90
23873;DHT22;42884;50.718;4.630;2024-03-22T12:43:46;15.80;99.90
23873;DHT22;42884;50.718;4.630;2024-03-22T12:46:11;16.00;99.90
23873;DHT22;42884;50.718;4.630;2024-03-22T12:48:37;16.10;99.90
23873;DHT22;42884;50.718;4.630;2024-03-22T12:51:03;16.20;99.90
23873;DHT22;42884;50.718;4.630;2024-03-22T12:53:28;16.40;99.90
23873;DHT22;42884;50.718;4.630;2024-03-22T12:55:54;16.50;99.90
23873;DHT22;42884;50.718;4.630;2024-03-22T12:58:31;16.30;99.90
23873;DHT22;42884;50.718;4.630;2024-03-22T13:00:57;16.20;99.90
23873;DHT22;42884;50.718;4.630;2024-03-22T13:03:23;16.20;99.90
23873;DHT22;42884;50.718;4.630;2024-03-22T13:05:49;16.30;99.90
23873;DHT22;42884;50.718;4.630;2024-03-22T13:08:14;16.40;99.90
23873;DHT22;42884;50.718;4.630;2024-03-22T13:10:40;16.20;99.90
23873;DHT22;42884;50.718;4.630;2024-03-22T13:13:09;16.10;99.90
23873;DHT22;42884;50.718;4.630;2024-03-22T13:15:34;15.90;99.90
23873;DHT22;42884;50.718;4.630;2024-03-22T13:18:02;15.90;99.90
23873;DHT22;42884;50.718;4.630;2024-03-22T13:20:28;15.80;99.90
23873;DHT22;42884;50.718;4.630;2024-03-22T13:22:53;15.90;99.90
23873;DHT22;42884;50.718;4.630;2024-03-22T13:25:19;15.80;99.90
23873;DHT22;42884;50.718;4.630;2024-03-22T13:27:45;15.60;99.90
23873;DHT22;42884;50.718;4.630;2024-03-22T13:30:10;15.50;99.90
23873;DHT22;42884;50.718;4.630;2024-03-22T13:32:37;15.40;99.90
23873;DHT22;42884;50.718;4.630;2024-03-22T13:35:04;15.50;99.90
23873;DHT22;42884;50.718;4.630;2024-03-22T13:37:30;15.40;99.90
23873;DHT22;42884;50.718;4.630;2024-03-22T13:39:56;15.40;99.90
23873;DHT22;42884;50.718;4.630;2024-03-22T13:42:21;15.40;99.90
23873;DHT22;42884;50.718;4.630;2024-03-22T13:44:47;15.30;99.90
23873;DHT22;42884;50.718;4.630;2024-03-22T13:47:13;15.30;99.90
23873;DHT22;42884;50.718;4.630;2024-03-22T13:49:38;15.20;99.90
23873;DHT22;42884;50.718;4.630;2024-03-22T13:52:06;15.10;99.90
23873;DHT22;42884;50.718;4.630;2024-03-22T13:54:32;15.00;99.90
23873;DHT22;42884;50.718;4.630;2024-03-22T13:56:58;15.00;99.90
23873;DHT22;42884;50.718;4.630;2024-03-22T13:59:23;15.20;99.90
23873;DHT22;42884;50.718;4.630;2024-03-22T14:01:49;15.20;99.90
23873;DHT22;42884;50.718;4.630;2024-03-22T14:04:14;15.20;99.90
23873;DHT22;42884;50.718;4.630;2024-03-22T14:06:40;15.20;99.90
23873;DHT22;42884;50.718;4.630;2024-03-22T14:09:07;15.10;99.90
23873;DHT22;42884;50.718;4.630;2024-03-22T14:11:35;15.00;99.90
23873;DHT22;42884;50.718;4.630;2024-03-22T14:14:01;15.00;99.90
23873;DHT22;42884;50.718;4.630;2024-03-22T14:16:27;15.00;99.90
23873;DHT22;42884;50.718;4.630;2024-03-22T14:18:52;14.90;99.90
23873;DHT22;42884;50.718;4.630;2024-03-22T14:21:18;14.70;99.90
23873;DHT22;42884;50.718;4.630;2024-03-22T14:23:47;14.70;99.90
23873;DHT22;42884;50.718;4.630;2024-03-22T14:26:13;14.70;99.90
23873;DHT22;42884;50.718;4.630;2024-03-22T14:28:38;14.80;99.90
23873;DHT22;42884;50.718;4.630;2024-03-22T14:31:08;14.70;99.90
23873;DHT22;42884;50.718;4.630;2024-03-22T14:33:37;14.80;99.90
23873;DHT22;42884;50.718;4.630;2024-03-22T14:36:04;14.80;99.90
23873;DHT22;42884;50.718;4.630;2024-03-22T14:38:30;14.80;99.90
23873;DHT22;42884;50.718;4.630;2024-03-22T14:40:55;14.80;99.90
23873;DHT22;42884;50.718;4.630;2024-03-22T14:43:24;14.80;99.90
23873;DHT22;42884;50.718;4.630;2024-03-22T14:45:51;14.70;99.90
23873;DHT22;42884;50.718;4.630;2024-03-22T14:48:21;14.50;99.90
23873;DHT22;42884;50.718;4.630;2024-03-22T14:50:46;14.50;99.90
23873;DHT22;42884;50.718;4.630;2024-03-22T14:53:12;14.50;99.90
23873;DHT22;42884;50.718;4.630;2024-03-22T14:55:38;14.50;99.90
23873;DHT22;42884;50.718;4.630;2024-03-22T14:58:04;14.40;99.90
23873;DHT22;42884;50.718;4.630;2024-03-22T15:00:30;14.50;99.90
23873;DHT22;42884;50.718;4.630;2024-03-22T15:02:56;14.30;99.90
23873;DHT22;42884;50.718;4.630;2024-03-22T15:05:21;14.30;99.90
23873;DHT22;42884;50.718;4.630;2024-03-22T15:07:47;14.30;99.90
23873;DHT22;42884;50.718;4.630;2024-03-22T15:10:13;14.10;99.90
23873;DHT22;42884;50.718;4.630;2024-03-22T15:12:38;14.00;99.90
23873;DHT22;42884;50.718;4.630;2024-03-22T15:15:04;13.90;99.90
23873;DHT22;42884;50.718;4.630;2024-03-22T15:17:30;13.80;99.90
23873;DHT22;42884;50.718;4.630;2024-03-22T15:19:56;13.80;99.90
23873;DHT22;42884;50.718;4.630;2024-03-22T15:22:21;13.80;99.90